Time;durP1;ratioP1;P1;durP2;ratioP2;P2;SDS_P1;SDS_P2;PMS_P1;PMS_P2;Temp;Humidity;BMP_temperature;BMP_pressure;BME280_temperature;BME280_humidity;BME280_pressure;Samples;Min_cycle;Max_cycle;Signal;HPM_P1;HPM_P2
2022/10/28 00:01:00;;;;;;;;;;;;;;;15.36;63.75;96288.19;5068997;28;20017;-72
2022/10/28 00:03:26;;;;;;;;;;;;;;;15.35;63.68;96291.94;5069725;28;20010;-71
2022/10/28 00:05:53;;;;;;;;;;;;;;;15.33;63.78;96294.16;5069125;28;20068;-69
2022/10/28 00:08:18;;;;;;;;;;;;;;;15.32;64.06;96287.22;5069026;28;20103;-71
2022/10/28 00:10:43;;;;;;;;;;;;;;;15.32;63.53;96292.56;5069747;28;20088;-69
2022/10/28 00:13:09;;;;;;;;;;;;;;;15.31;63.45;96291.78;5069429;28;20035;-69
2022/10/28 00:15:34;;;;;;;;;;;;;;;15.28;63.20;96287.03;5069505;28;20036;-70
2022/10/28 00:18:00;;;;;;;;;;;;;;;15.25;63.24;96286.84;5069748;28;20009;-70
2022/10/28 00:20:25;;;;;;;;;;;;;;;15.26;62.98;96293.81;5068963;28;20021;-70
2022/10/28 00:22:50;;;;;;;;;;;;;;;15.25;62.39;96281.47;5069551;28;20010;-70
2022/10/28 00:25:16;;;;;;;;;;;;;;;15.25;62.37;96278.78;5069226;28;20009;-70
2022/10/28 00:27:42;;;;;;;;;;;;;;;15.24;62.19;96290.63;5069516;28;20370;-69
2022/10/28 00:30:08;;;;;;;;;;;;;;;15.23;61.70;96289.84;5068935;28;20516;-70
2022/10/28 00:32:33;;;;;;;;;;;;;;;15.20;62.02;96290.47;5069312;28;20092;-69
2022/10/28 00:34:58;;;;;;;;;;;;;;;15.19;61.92;96282.69;5084824;28;20496;-70
2022/10/28 00:37:24;;;;;;;;;;;;;;;15.17;61.44;96279.53;5069454;28;20481;-70
2022/10/28 00:39:49;;;;;;;;;;;;;;;15.17;61.45;96279.53;5069211;28;20378;-70
2022/10/28 00:42:16;;;;;;;;;;;;;;;15.16;61.05;96277.97;5069591;28;20111;-69
2022/10/28 00:44:53;;;;;;;;;;;;;;;15.18;60.69;96275.75;5056530;28;20013;-69
2022/10/28 00:47:24;;;;;;;;;;;;;;;15.18;60.59;96265.84;5072956;28;20510;-70
2022/10/28 00:49:50;;;;;;;;;;;;;;;15.18;60.28;96275.75;5073050;28;20009;-70
2022/10/28 00:52:18;;;;;;;;;;;;;;;15.18;60.38;96265.03;5073280;28;20424;-70
2022/10/28 00:54:44;;;;;;;;;;;;;;;15.18;59.96;96275.75;5087164;28;20013;-70
2022/10/28 00:57:11;;;;;;;;;;;;;;;15.17;59.84;96268.81;5070339;28;20025;-69
2022/10/28 00:59:38;;;;;;;;;;;;;;;15.18;59.44;96271.19;5072909;28;20074;-70
2022/10/28 01:02:04;;;;;;;;;;;;;;;15.20;59.43;96268.19;5088598;28;20013;-70
2022/10/28 01:04:29;;;;;;;;;;;;;;;15.23;59.48;96268.38;5072605;28;20020;-70
2022/10/28 01:06:56;;;;;;;;;;;;;;;15.25;58.81;96273.44;5087079;28;20108;-70
2022/10/28 01:09:21;;;;;;;;;;;;;;;15.26;58.95;96267.78;5072530;28;20496;-70
2022/10/28 01:12:06;;;;;;;;;;;;;;;15.27;58.33;96268.56;5072618;28;20009;-70
2022/10/28 01:14:35;;;;;;;;;;;;;;;15.29;58.07;96261.00;5072474;28;20017;-69
2022/10/28 01:17:07;;;;;;;;;;;;;;;15.31;57.99;96264.97;5071561;28;20026;-70
2022/10/28 01:19:51;;;;;;;;;;;;;;;15.31;57.96;96262.31;5072308;28;20025;-70
2022/10/28 01:22:29;;;;;;;;;;;;;;;15.33;57.87;96261.97;5071159;28;20024;-70
2022/10/28 01:24:54;;;;;;;;;;;;;;;15.34;57.93;96255.53;5071500;28;20492;-70
2022/10/28 01:27:38;;;;;;;;;;;;;;;15.32;57.86;96255.03;5072149;28;20103;-70
2022/10/28 01:30:13;;;;;;;;;;;;;;;15.34;57.78;96258.19;5088088;28;20121;-70
2022/10/28 01:32:50;;;;;;;;;;;;;;;15.33;57.97;96253.94;5069800;28;20450;-70
2022/10/28 01:35:27;;;;;;;;;;;;;;;15.32;57.74;96255.84;5051670;28;20017;-69
2022/10/28 01:38:00;;;;;;;;;;;;;;;15.33;57.68;96253.94;5052112;28;20009;-70
2022/10/28 01:40:35;;;;;;;;;;;;;;;15.33;57.48;96253.94;5052341;28;20062;-72
2022/10/28 01:43:14;;;;;;;;;;;;;;;15.34;57.50;96253.63;5051604;28;20020;-72
2022/10/28 01:45:55;;;;;;;;;;;;;;;15.36;57.67;96260.59;5050335;28;20016;-71
2022/10/28 01:48:24;;;;;;;;;;;;;;;15.36;57.24;96253.34;5067594;28;20020;-72
2022/10/28 01:50:56;;;;;;;;;;;;;;;15.37;57.35;96254.13;5052132;28;20017;-75
2022/10/28 01:53:25;;;;;;;;;;;;;;;15.34;57.24;96247.47;5063372;28;20024;-72
2022/10/28 01:55:53;;;;;;;;;;;;;;;15.36;57.19;96249.88;5070146;28;20018;-72
2022/10/28 01:58:20;;;;;;;;;;;;;;;15.37;57.05;96254.13;5071993;28;20027;-70
2022/10/28 02:00:46;;;;;;;;;;;;;;;15.39;56.86;96251.91;5072136;28;20013;-70
2022/10/28 02:03:12;;;;;;;;;;;;;;;15.38;56.53;96247.66;5071619;28;20009;-70
2022/10/28 02:05:39;;;;;;;;;;;;;;;15.41;56.57;96245.16;5071417;28;20013;-69
2022/10/28 02:08:16;;;;;;;;;;;;;;;15.42;56.37;96246.75;5070377;28;20516;-70
2022/10/28 02:10:54;;;;;;;;;;;;;;;15.38;56.54;96242.31;5071705;28;20005;-70
2022/10/28 02:13:21;;;;;;;;;;;;;;;15.33;55.83;96240.53;5071935;28;20544;-70
2022/10/28 02:15:59;;;;;;;;;;;;;;;15.39;56.23;96243.88;5061493;28;20098;-70
2022/10/28 02:18:47;;;;;;;;;;;;;;;15.37;56.22;96246.09;5052215;28;20009;-73
2022/10/28 02:21:19;;;;;;;;;;;;;;;15.29;55.84;96244.94;5047513;28;20213;-73
2022/10/28 02:23:51;;;;;;;;;;;;;;;15.38;56.03;96244.97;5057021;28;20043;-72
2022/10/28 02:26:23;;;;;;;;;;;;;;;15.44;55.61;96251.78;5051187;28;20044;-73
2022/10/28 02:29:02;;;;;;;;;;;;;;;15.48;55.50;96247.41;5050257;28;20014;-73
2022/10/28 02:31:32;;;;;;;;;;;;;;;15.49;55.13;96244.41;5049894;28;20045;-73
2022/10/28 02:33:59;;;;;;;;;;;;;;;15.55;54.65;96243.16;5057917;28;20019;-73
2022/10/28 02:36:27;;;;;;;;;;;;;;;15.57;54.70;96240.19;5084590;28;20145;-72
2022/10/28 02:38:53;;;;;;;;;;;;;;;15.62;54.88;96242.75;5069489;28;20013;-73
2022/10/28 02:41:28;;;;;;;;;;;;;;;15.64;54.34;96239.78;5069572;28;20186;-72
2022/10/28 02:43:55;;;;;;;;;;;;;;;15.65;54.86;96241.34;5069365;28;20009;-72
2022/10/28 02:46:22;;;;;;;;;;;;;;;15.67;54.34;96239.16;5059115;28;20022;-73
2022/10/28 02:48:52;;;;;;;;;;;;;;;15.69;54.40;96231.59;5050216;28;20023;-72
2022/10/28 02:51:20;;;;;;;;;;;;;;;15.69;54.46;96234.28;5048423;28;20469;-73
2022/10/28 02:53:51;;;;;;;;;;;;;;;15.67;54.81;96234.59;5049584;28;20021;-73
2022/10/28 02:56:18;;;;;;;;;;;;;;;15.65;54.62;96230.63;5050254;28;20028;-73
2022/10/28 02:58:44;;;;;;;;;;;;;;;15.64;54.74;96223.69;5061096;28;20021;-73
2022/10/28 03:01:09;;;;;;;;;;;;;;;15.62;54.74;96221.28;5070835;28;20038;-73
2022/10/28 03:03:34;;;;;;;;;;;;;;;15.62;54.25;96221.28;5086522;28;20009;-73
2022/10/28 03:05:59;;;;;;;;;;;;;;;15.64;54.28;96221.78;5069754;28;20067;-73
2022/10/28 03:08:25;;;;;;;;;;;;;;;15.64;54.18;96221.78;5069091;28;20013;-73
2022/10/28 03:10:50;;;;;;;;;;;;;;;15.65;53.94;96226.06;5085435;28;20012;-73
2022/10/28 03:13:15;;;;;;;;;;;;;;;15.65;54.02;96226.06;5069008;28;20017;-73
2022/10/28 03:15:40;;;;;;;;;;;;;;;15.66;54.04;96224.16;5068897;28;20017;-73
2022/10/28 03:18:06;;;;;;;;;;;;;;;15.67;54.18;96225.75;5070340;28;20009;-72
2022/10/28 03:20:31;;;;;;;;;;;;;;;15.67;53.85;96231.13;5070224;28;20060;-74
2022/10/28 03:22:56;;;;;;;;;;;;;;;15.62;53.96;96233.91;5085405;28;20374;-74
2022/10/28 03:25:21;;;;;;;;;;;;;;;15.47;54.08;96224.38;5069790;28;20469;-74
2022/10/28 03:27:46;;;;;;;;;;;;;;;15.36;54.25;96236.47;5070304;28;20385;-71
2022/10/28 03:30:13;;;;;;;;;;;;;;;15.46;54.09;96234.31;5085082;28;20009;-73
2022/10/28 03:32:40;;;;;;;;;;;;;;;15.45;54.15;96232.72;5068765;28;20602;-73
2022/10/28 03:35:05;;;;;;;;;;;;;;;15.44;54.42;96225.78;5085195;28;20063;-72
2022/10/28 03:37:30;;;;;;;;;;;;;;;15.45;54.45;96234.59;5070111;28;20064;-72
2022/10/28 03:39:56;;;;;;;;;;;;;;;15.45;54.48;96231.91;5084908;28;20077;-73
2022/10/28 03:42:21;;;;;;;;;;;;;;;15.42;54.64;96227.19;5069656;28;20056;-71
2022/10/28 03:44:46;;;;;;;;;;;;;;;15.37;54.47;96230.00;5068664;28;20502;-73
2022/10/28 03:47:11;;;;;;;;;;;;;;;15.40;54.61;96227.47;5069600;28;20097;-72
2022/10/28 03:49:36;;;;;;;;;;;;;;;15.45;54.51;96229.25;5070015;28;20016;-73
2022/10/28 03:52:02;;;;;;;;;;;;;;;15.42;54.95;96227.97;5069073;28;20013;-72
2022/10/28 03:54:28;;;;;;;;;;;;;;;15.39;54.88;96228.59;5069289;28;20493;-72
2022/10/28 03:56:53;;;;;;;;;;;;;;;15.34;54.81;96234.06;5084766;28;20074;-73
2022/10/28 03:59:18;;;;;;;;;;;;;;;15.26;54.84;96237.50;5069795;28;20017;-73
2022/10/28 04:01:43;;;;;;;;;;;;;;;15.24;55.05;96239.69;5085312;28;20314;-72
2022/10/28 04:04:08;;;;;;;;;;;;;;;15.19;55.12;96237.13;5082985;28;20021;-73
2022/10/28 04:06:34;;;;;;;;;;;;;;;15.26;55.07;96235.63;5047557;28;20029;-73
2022/10/28 04:08:59;;;;;;;;;;;;;;;15.28;55.02;96233.41;5047980;28;20110;-72
2022/10/28 04:11:24;;;;;;;;;;;;;;;15.25;55.17;96230.53;5048182;28;20052;-73
2022/10/28 04:13:49;;;;;;;;;;;;;;;15.25;55.29;96236.72;5049813;28;20075;-73
2022/10/28 04:16:14;;;;;;;;;;;;;;;15.22;55.37;96236.53;5048533;28;20013;-72
2022/10/28 04:18:40;;;;;;;;;;;;;;;15.20;55.80;96236.03;5072234;28;20016;-73
2022/10/28 04:21:05;;;;;;;;;;;;;;;15.19;55.48;96231.78;5072470;28;20631;-73
2022/10/28 04:23:30;;;;;;;;;;;;;;;15.18;55.47;96238.25;5073704;28;20019;-72
2022/10/28 04:25:55;;;;;;;;;;;;;;;15.17;55.82;96233.97;5084621;28;20017;-73
2022/10/28 04:28:23;;;;;;;;;;;;;;;15.16;55.63;96235.88;5053383;28;20040;-72
2022/10/28 04:30:48;;;;;;;;;;;;;;;15.14;55.95;96226.53;5052569;28;20018;-72
2022/10/28 04:33:13;;;;;;;;;;;;;;;15.11;56.09;96227.19;5055214;28;20060;-71
2022/10/28 04:35:41;;;;;;;;;;;;;;;15.07;56.04;96233.13;5053267;28;20082;-71
2022/10/28 04:38:06;;;;;;;;;;;;;;;15.03;56.70;96232.16;5058000;28;20374;-71
2022/10/28 04:40:32;;;;;;;;;;;;;;;15.02;56.17;96230.56;5072349;28;20043;-71
2022/10/28 04:42:57;;;;;;;;;;;;;;;14.99;56.15;96228.50;5061788;28;20036;-71
2022/10/28 04:45:22;;;;;;;;;;;;;;;15.00;56.25;96235.47;5070496;28;20021;-72
2022/10/28 04:47:47;;;;;;;;;;;;;;;14.98;56.66;96232.28;5071269;28;20520;-70
2022/10/28 04:50:12;;;;;;;;;;;;;;;14.98;56.38;96234.97;5073062;28;20009;-72
2022/10/28 04:52:38;;;;;;;;;;;;;;;14.98;56.35;96234.97;5070852;28;20017;-70
2022/10/28 04:55:03;;;;;;;;;;;;;;;14.97;56.89;96232.59;5071124;28;20138;-68
2022/10/28 04:57:28;;;;;;;;;;;;;;;14.93;57.05;96227.03;5072550;28;20017;-70
2022/10/28 04:59:54;;;;;;;;;;;;;;;14.90;56.95;96233.03;5072787;28;20118;-71
2022/10/28 05:02:20;;;;;;;;;;;;;;;14.88;57.00;96229.84;5069796;28;20017;-71
2022/10/28 05:04:48;;;;;;;;;;;;;;;14.88;57.01;96226.38;5068439;28;20020;-70
2022/10/28 05:07:14;;;;;;;;;;;;;;;14.87;57.09;96225.59;5063624;28;20017;-71
2022/10/28 05:09:39;;;;;;;;;;;;;;;14.88;56.45;96223.69;5058286;28;20370;-71
2022/10/28 05:12:05;;;;;;;;;;;;;;;14.88;56.54;96213.78;5070562;28;20019;-71
2022/10/28 05:14:30;;;;;;;;;;;;;;;14.92;55.97;96213.97;5071718;28;20476;-73
2022/10/28 05:16:56;;;;;;;;;;;;;;;14.93;56.03;96216.31;5064010;28;20036;-72
2022/10/28 05:19:21;;;;;;;;;;;;;;;14.94;55.88;96217.13;5103034;28;20827;-70
2022/10/28 05:21:46;;;;;;;;;;;;;;;14.95;56.01;96213.38;5088063;28;20013;-70
2022/10/28 05:24:11;;;;;;;;;;;;;;;14.97;55.86;96211.16;5070758;28;20020;-70
2022/10/28 05:26:36;;;;;;;;;;;;;;;14.96;55.38;96210.38;5070471;28;20080;-71
2022/10/28 05:29:01;;;;;;;;;;;;;;;14.96;55.71;96215.72;5071041;28;20013;-71
2022/10/28 05:31:27;;;;;;;;;;;;;;;15.02;55.24;96219.06;5069884;28;20017;-73
2022/10/28 05:33:52;;;;;;;;;;;;;;;15.01;55.21;96212.13;5060923;28;20036;-71
2022/10/28 05:36:17;;;;;;;;;;;;;;;15.10;55.08;96204.94;5086572;28;20024;-69
2022/10/28 05:38:44;;;;;;;;;;;;;;;15.09;54.76;96211.38;5067649;28;20070;-68
2022/10/28 05:41:09;;;;;;;;;;;;;;;15.14;54.86;96215.81;5070301;28;20033;-69
2022/10/28 05:43:34;;;;;;;;;;;;;;;15.17;54.64;96209.88;5071645;28;20519;-66
2022/10/28 05:46:01;;;;;;;;;;;;;;;15.17;54.79;96207.97;5075761;28;20024;-68
2022/10/28 05:48:26;;;;;;;;;;;;;;;15.15;54.58;96206.69;5083805;28;20017;-68
2022/10/28 05:50:51;;;;;;;;;;;;;;;15.27;54.51;96215.75;5070657;28;20077;-67
2022/10/28 05:53:17;;;;;;;;;;;;;;;15.32;54.30;96207.59;5069138;28;20346;-69
2022/10/28 05:55:42;;;;;;;;;;;;;;;15.11;54.63;96211.88;5084886;28;20103;-69
2022/10/28 05:58:08;;;;;;;;;;;;;;;15.23;54.45;96211.31;5075868;28;20054;-66
2022/10/28 06:00:34;;;;;;;;;;;;;;;15.24;54.61;96218.25;5087476;28;20385;-66
2022/10/28 06:03:05;;;;;;;;;;;;;;;15.29;54.68;96223.47;5072153;28;20012;-68
2022/10/28 06:05:30;;;;;;;;;;;;;;;15.29;54.47;96228.84;5084655;28;20570;-70
2022/10/28 06:07:56;;;;;;;;;;;;;;;15.43;54.47;96218.81;5076550;28;20144;-69
2022/10/28 06:10:21;;;;;;;;;;;;;;;15.48;53.83;96229.44;5079925;28;20062;-71
2022/10/28 06:12:46;;;;;;;;;;;;;;;15.38;53.72;96232.38;5072247;28;20014;-70
2022/10/28 06:15:11;;;;;;;;;;;;;;;15.37;53.27;96238.84;5071881;28;20013;-70
2022/10/28 06:17:36;;;;;;;;;;;;;;;15.31;53.04;96232.81;5070762;28;20025;-70
2022/10/28 06:20:03;;;;;;;;;;;;;;;15.53;52.27;96239.22;5069987;28;20416;-66
2022/10/28 06:22:28;;;;;;;;;;;;;;;15.84;53.44;96244.59;5088723;28;20067;-82
2022/10/28 06:24:53;;;;;;;;;;;;;;;16.19;51.86;96244.72;5083800;28;20017;-68
2022/10/28 06:27:18;;;;;;;;;;;;;;;16.33;50.88;96240.00;5062274;28;20481;-70
2022/10/28 06:29:43;;;;;;;;;;;;;;;16.46;50.50;96241.75;5051942;28;20016;-70
2022/10/28 06:32:09;;;;;;;;;;;;;;;16.57;50.43;96240.31;5051878;28;20128;-71
2022/10/28 06:34:34;;;;;;;;;;;;;;;16.68;50.07;96242.69;5051598;28;20014;-70
2022/10/28 06:37:00;;;;;;;;;;;;;;;16.75;49.89;96235.78;5057762;28;20096;-71
2022/10/28 06:39:25;;;;;;;;;;;;;;;16.82;49.77;96240.69;5070346;28;20031;-71
2022/10/28 06:41:50;;;;;;;;;;;;;;;16.88;49.61;96234.81;5068379;28;20021;-69
2022/10/28 06:44:15;;;;;;;;;;;;;;;16.95;49.46;96231.69;5071035;28;20028;-69
2022/10/28 06:46:40;;;;;;;;;;;;;;;17.03;49.40;96230.06;5068479;28;20055;-70
2022/10/28 06:49:07;;;;;;;;;;;;;;;17.10;49.13;96230.41;5070928;28;20138;-69
2022/10/28 06:51:33;;;;;;;;;;;;;;;17.15;49.04;96239.09;5066078;28;20023;-69
2022/10/28 06:53:58;;;;;;;;;;;;;;;17.21;49.13;96241.59;5068855;28;20103;-69
2022/10/28 06:56:23;;;;;;;;;;;;;;;17.20;49.04;96242.69;5068600;28;20020;-69
2022/10/28 06:58:49;;;;;;;;;;;;;;;17.23;48.76;96250.13;5070067;28;20024;-70
2022/10/28 07:01:14;;;;;;;;;;;;;;;17.28;48.66;96253.44;5069191;28;20013;-70
2022/10/28 07:03:40;;;;;;;;;;;;;;;16.89;49.05;96252.56;5069507;28;20120;-70
2022/10/28 07:06:05;;;;;;;;;;;;;;;17.11;48.91;96248.88;5065945;28;20017;-69
2022/10/28 07:08:31;;;;;;;;;;;;;;;17.45;48.73;96251.81;5068792;28;20104;-70
2022/10/28 07:10:57;;;;;;;;;;;;;;;17.59;48.52;96252.41;5066901;28;20056;-69
2022/10/28 07:13:23;;;;;;;;;;;;;;;17.70;48.52;96253.66;5068296;28;20057;-68
2022/10/28 07:15:52;;;;;;;;;;;;;;;17.81;48.35;96254.94;5050083;28;20009;-69
2022/10/28 07:18:17;;;;;;;;;;;;;;;17.77;48.04;96263.97;5050294;28;20063;-69
2022/10/28 07:20:42;;;;;;;;;;;;;;;17.45;48.28;96263.38;5050034;28;20021;-69
2022/10/28 07:23:07;;;;;;;;;;;;;;;17.32;49.12;96265.16;5049037;28;20071;-69
2022/10/28 07:25:32;;;;;;;;;;;;;;;17.44;48.48;96269.06;5048441;28;20367;-69
2022/10/28 07:27:58;;;;;;;;;;;;;;;17.65;48.45;96276.13;5048973;28;20020;-69
2022/10/28 07:30:23;;;;;;;;;;;;;;;18.11;47.80;96268.38;5064908;28;20060;-69
2022/10/28 07:32:49;;;;;;;;;;;;;;;18.54;47.07;96276.25;5086266;28;20013;-69
2022/10/28 07:35:14;;;;;;;;;;;;;;;18.84;46.14;96279.72;5069813;28;20112;-68
2022/10/28 07:37:39;;;;;;;;;;;;;;;19.18;46.39;96278.63;5086182;28;20023;-69
2022/10/28 07:40:05;;;;;;;;;;;;;;;19.47;45.67;96276.94;5085829;28;20017;-69
2022/10/28 07:42:31;;;;;;;;;;;;;;;19.69;44.90;96273.84;5084513;28;20017;-69
2022/10/28 07:44:57;;;;;;;;;;;;;;;19.92;44.51;96273.47;5069738;28;20005;-70
2022/10/28 07:47:22;;;;;;;;;;;;;;;20.19;44.20;96278.19;5058611;28;20437;-69
2022/10/28 07:49:47;;;;;;;;;;;;;;;20.45;43.55;96275.13;5065202;28;20013;-69
2022/10/28 07:52:12;;;;;;;;;;;;;;;20.73;43.25;96269.84;5049677;28;20005;-69
2022/10/28 07:54:37;;;;;;;;;;;;;;;21.05;42.07;96263.78;5049859;28;20066;-69
2022/10/28 07:57:03;;;;;;;;;;;;;;;21.38;41.37;96274.38;5060075;28;20035;-69
2022/10/28 07:59:28;;;;;;;;;;;;;;;21.75;40.66;96274.94;5085461;28;20409;-68
2022/10/28 08:01:53;;;;;;;;;;;;;;;22.04;39.89;96271.03;5085367;28;20013;-69
2022/10/28 08:04:19;;;;;;;;;;;;;;;22.37;39.58;96270.72;5069876;28;20009;-69
2022/10/28 08:06:44;;;;;;;;;;;;;;;22.71;39.12;96266.41;5084484;28;20453;-69
2022/10/28 08:09:09;;;;;;;;;;;;;;;23.03;38.35;96269.03;5059255;28;20104;-69
2022/10/28 08:11:34;;;;;;;;;;;;;;;23.34;37.46;96263.50;5049340;28;20101;-69
2022/10/28 08:14:01;;;;;;;;;;;;;;;23.67;37.25;96270.31;5049519;28;20013;-69
2022/10/28 08:16:27;;;;;;;;;;;;;;;23.99;36.41;96268.16;5047627;28;20101;-69
2022/10/28 08:18:53;;;;;;;;;;;;;;;24.22;36.06;96257.28;5049728;28;20386;-70
2022/10/28 08:21:18;;;;;;;;;;;;;;;24.44;35.65;96269.28;5062895;28;20017;-70
2022/10/28 08:23:45;;;;;;;;;;;;;;;24.61;35.31;96266.03;5069729;28;20017;-69
2022/10/28 08:26:11;;;;;;;;;;;;;;;24.78;35.08;96272.88;5069570;28;20064;-69
2022/10/28 08:28:36;;;;;;;;;;;;;;;24.96;34.36;96272.31;5068957;28;20052;-69
2022/10/28 08:31:03;;;;;;;;;;;;;;;25.11;34.53;96279.53;5085377;28;20088;-70
2022/10/28 08:33:30;;;;;;;;;;;;;;;25.25;33.78;96265.31;5085693;28;20434;-69
2022/10/28 08:35:55;;;;;;;;;;;;;;;25.38;33.40;96259.22;5084811;28;20450;-69
2022/10/28 08:38:20;;;;;;;;;;;;;;;25.55;33.06;96266.06;5085093;28;20070;-69
2022/10/28 08:41:01;;;;;;;;;;;;;;;25.65;32.35;96265.38;5085000;28;20013;-70
2022/10/28 08:43:34;;;;;;;;;;;;;;;25.66;32.01;96264.22;5049841;28;20020;-69
2022/10/28 08:46:03;;;;;;;;;;;;;;;25.71;32.17;96257.66;5049157;28;20478;-70
2022/10/28 08:48:35;;;;;;;;;;;;;;;25.72;32.49;96261.16;5049304;28;20011;-69
2022/10/28 08:51:05;;;;;;;;;;;;;;;25.72;32.19;96267.38;5049989;28;20365;-70
2022/10/28 08:53:33;;;;;;;;;;;;;;;25.66;32.45;96261.50;5049556;28;20018;-69
2022/10/28 08:56:04;;;;;;;;;;;;;;;25.72;32.51;96270.09;5049289;28;20458;-69
2022/10/28 08:58:32;;;;;;;;;;;;;;;25.67;32.11;96263.06;5049327;28;20036;-69
2022/10/28 09:01:00;;;;;;;;;;;;;;;25.65;32.18;96264.59;5060998;28;20421;-70
2022/10/28 09:03:28;;;;;;;;;;;;;;;25.36;32.76;96266.22;5070009;28;20008;-69
2022/10/28 09:06:07;;;;;;;;;;;;;;;25.08;32.62;96272.91;5072479;28;20124;-70
2022/10/28 09:08:39;;;;;;;;;;;;;;;25.02;32.62;96279.78;5072364;28;20016;-70
2022/10/28 09:11:04;;;;;;;;;;;;;;;25.12;32.56;96284.59;5072718;28;20054;-69
2022/10/28 09:13:38;;;;;;;;;;;;;;;25.07;33.07;96281.44;5071317;28;20039;-70
2022/10/28 09:16:04;;;;;;;;;;;;;;;24.50;33.40;96284.13;5072441;28;20089;-70
2022/10/28 09:18:39;;;;;;;;;;;;;;;24.29;33.87;96283.78;5072563;28;20059;-69
2022/10/28 09:21:08;;;;;;;;;;;;;;;24.45;34.09;96287.16;5072734;28;20009;-70
2022/10/28 09:23:44;;;;;;;;;;;;;;;24.58;34.09;96271.44;5072562;28;20009;-69
2022/10/28 09:26:16;;;;;;;;;;;;;;;24.68;34.28;96268.06;5071818;28;20119;-69
2022/10/28 09:28:55;;;;;;;;;;;;;;;24.74;33.46;96273.97;5072146;28;20032;-69
2022/10/28 09:31:28;;;;;;;;;;;;;;;24.86;33.72;96271.81;5072239;28;20005;-69
2022/10/28 09:34:02;;;;;;;;;;;;;;;25.00;33.30;96271.22;5072468;28;20217;-69
2022/10/28 09:36:32;;;;;;;;;;;;;;;25.19;33.10;96262.16;5070958;28;20117;-69
2022/10/28 09:38:59;;;;;;;;;;;;;;;25.34;32.38;96257.66;5059605;28;20023;-69
2022/10/28 09:41:31;;;;;;;;;;;;;;;25.57;32.69;96265.66;5052130;28;20117;-69
2022/10/28 09:44:02;;;;;;;;;;;;;;;25.70;32.51;96268.94;5052298;28;20013;-69
2022/10/28 09:46:29;;;;;;;;;;;;;;;25.85;32.63;96266.00;5051519;28;20014;-69
2022/10/28 09:48:56;;;;;;;;;;;;;;;25.99;32.53;96264.53;5051857;28;20017;-69
2022/10/28 09:51:21;;;;;;;;;;;;;;;26.01;32.53;96268.47;5066150;28;20516;-69
2022/10/28 09:53:52;;;;;;;;;;;;;;;25.77;32.05;96267.06;5071895;28;20052;-69
2022/10/28 09:56:17;;;;;;;;;;;;;;;25.70;32.55;96264.25;5071484;28;20054;-68
2022/10/28 09:58:45;;;;;;;;;;;;;;;25.75;32.36;96266.69;5071877;28;20017;-69
2022/10/28 10:01:11;;;;;;;;;;;;;;;25.86;32.23;96266.78;5058757;28;20108;-69
2022/10/28 10:03:38;;;;;;;;;;;;;;;26.06;32.06;96261.88;5050365;28;20124;-68
2022/10/28 10:06:11;;;;;;;;;;;;;;;26.25;31.72;96266.31;5051302;28;20018;-69
2022/10/28 10:08:38;;;;;;;;;;;;;;;26.53;31.66;96254.84;5051846;28;20103;-69
2022/10/28 10:11:05;;;;;;;;;;;;;;;26.65;30.83;96262.72;5051706;28;20012;-68
2022/10/28 10:13:35;;;;;;;;;;;;;;;26.86;31.02;96268.28;5060383;28;20017;-68
2022/10/28 10:16:14;;;;;;;;;;;;;;;26.91;30.40;96265.19;5050268;28;20013;-69
2022/10/28 10:18:45;;;;;;;;;;;;;;;26.94;30.69;96264.44;5051315;28;20469;-69
2022/10/28 10:21:11;;;;;;;;;;;;;;;26.89;29.90;96262.06;5051428;28;20012;-68
2022/10/28 10:23:36;;;;;;;;;;;;;;;26.84;30.14;96264.38;5051330;28;20009;-69
2022/10/28 10:26:12;;;;;;;;;;;;;;;26.81;30.63;96260.47;5050926;28;20062;-69
2022/10/28 10:28:41;;;;;;;;;;;;;;;26.39;30.89;96255.50;5066359;28;20071;-68
2022/10/28 10:31:15;;;;;;;;;;;;;;;26.84;30.71;96254.25;5049741;28;20017;-68
2022/10/28 10:33:40;;;;;;;;;;;;;;;27.05;30.35;96252.78;5061381;28;20021;-68
2022/10/28 10:36:08;;;;;;;;;;;;;;;27.09;29.89;96251.66;5070698;28;20123;-68
2022/10/28 10:38:34;;;;;;;;;;;;;;;26.92;30.42;96253.13;5070837;28;20062;-69
2022/10/28 10:41:01;;;;;;;;;;;;;;;27.32;30.50;96250.56;5070278;28;20397;-69
2022/10/28 10:43:30;;;;;;;;;;;;;;;27.45;29.84;96249.84;5070326;28;20475;-68
2022/10/28 10:46:02;;;;;;;;;;;;;;;27.84;29.81;96251.88;5070353;28;20074;-68
2022/10/28 10:48:35;;;;;;;;;;;;;;;28.12;28.58;96255.81;5070445;28;20092;-68
2022/10/28 10:51:08;;;;;;;;;;;;;;;28.33;28.14;96253.09;5070058;28;20020;-69
2022/10/28 10:53:34;;;;;;;;;;;;;;;28.52;29.14;96242.91;5070811;28;20095;-69
2022/10/28 10:56:01;;;;;;;;;;;;;;;28.70;28.20;96243.66;5086132;28;20123;-68
2022/10/28 10:58:29;;;;;;;;;;;;;;;28.65;27.96;96241.31;5070538;28;20103;-68
2022/10/28 11:00:56;;;;;;;;;;;;;;;28.59;28.28;96232.72;5051545;28;20063;-69
2022/10/28 11:03:33;;;;;;;;;;;;;;;28.46;28.08;96237.06;5050523;28;20045;-68
2022/10/28 11:05:59;;;;;;;;;;;;;;;28.31;28.05;96238.22;5050095;28;20013;-68
2022/10/28 11:08:34;;;;;;;;;;;;;;;27.93;28.39;96235.09;5050308;28;20111;-68
2022/10/28 11:11:07;;;;;;;;;;;;;;;27.95;28.81;96232.78;5050260;28;20016;-68
2022/10/28 11:13:32;;;;;;;;;;;;;;;28.09;29.12;96229.22;5050505;28;20016;-68
2022/10/28 11:15:59;;;;;;;;;;;;;;;28.21;28.21;96228.84;5050118;28;20009;-69
2022/10/28 11:18:24;;;;;;;;;;;;;;;28.27;27.52;96212.81;5048888;28;20517;-68
2022/10/28 11:20:56;;;;;;;;;;;;;;;28.28;27.90;96223.38;5049992;28;20489;-69
2022/10/28 11:23:42;;;;;;;;;;;;;;;28.23;28.42;96221.03;5068231;28;20021;-70
2022/10/28 11:26:09;;;;;;;;;;;;;;;28.33;28.11;96219.44;5055063;28;20017;-69
2022/10/28 11:28:47;;;;;;;;;;;;;;;28.33;27.93;96212.06;5069830;28;20014;-69
2022/10/28 11:31:15;;;;;;;;;;;;;;;28.35;28.19;96211.66;5068545;28;20043;-69
2022/10/28 11:33:55;;;;;;;;;;;;;;;28.14;28.04;96210.47;5068825;28;20017;-69
2022/10/28 11:36:30;;;;;;;;;;;;;;;28.39;27.89;96206.97;5068047;28;20023;-68
2022/10/28 11:38:58;;;;;;;;;;;;;;;28.20;28.04;96194.44;5070323;28;20019;-69
2022/10/28 11:41:42;;;;;;;;;;;;;;;28.15;28.25;96203.84;5069985;28;20115;-69
2022/10/28 11:44:27;;;;;;;;;;;;;;;27.80;28.59;96190.97;5069994;28;20031;-70
2022/10/28 11:47:11;;;;;;;;;;;;;;;27.86;28.58;96191.34;5068803;28;20469;-69
2022/10/28 11:49:58;;;;;;;;;;;;;;;27.80;29.08;96192.91;5069110;28;20017;-69
2022/10/28 11:52:41;;;;;;;;;;;;;;;27.88;28.89;96195.25;5069541;28;20064;-69
2022/10/28 11:55:18;;;;;;;;;;;;;;;27.85;28.61;96190.56;5069420;28;20373;-69
2022/10/28 11:58:02;;;;;;;;;;;;;;;27.51;28.63;96190.13;5066222;28;20013;-68
2022/10/28 12:00:48;;;;;;;;;;;;;;;27.75;28.70;96196.81;5049372;28;20013;-69
2022/10/28 12:03:25;;;;;;;;;;;;;;;27.94;28.19;96188.22;5045890;28;20132;-69
2022/10/28 12:06:13;;;;;;;;;;;;;;;28.08;27.72;96192.13;5048680;28;20025;-68
2022/10/28 12:08:51;;;;;;;;;;;;;;;28.10;27.91;96189.75;5070046;28;20020;-68
2022/10/28 12:11:28;;;;;;;;;;;;;;;28.15;27.84;96189.38;5069356;28;20013;-68
2022/10/28 12:13:57;;;;;;;;;;;;;;;28.35;28.32;96176.84;5069596;28;20009;-68
2022/10/28 12:16:33;;;;;;;;;;;;;;;28.48;28.22;96178.00;5068235;28;20103;-68
2022/10/28 12:19:09;;;;;;;;;;;;;;;28.71;27.99;96184.97;5069251;28;20016;-68
2022/10/28 12:21:36;;;;;;;;;;;;;;;29.03;27.59;96184.13;5069504;28;20771;-69
2022/10/28 12:24:04;;;;;;;;;;;;;;;29.33;27.25;96176.13;5069519;28;20009;-69
2022/10/28 12:26:36;;;;;;;;;;;;;;;29.52;26.98;96172.84;5068786;28;20038;-70
2022/10/28 12:29:04;;;;;;;;;;;;;;;29.54;26.63;96166.22;5068518;28;20021;-68
2022/10/28 12:31:33;;;;;;;;;;;;;;;29.40;26.53;96167.84;5068948;28;20021;-68
2022/10/28 12:34:00;;;;;;;;;;;;;;;29.33;26.62;96158.88;5069391;28;20477;-68
2022/10/28 12:36:30;;;;;;;;;;;;;;;29.31;26.84;96155.75;5068451;28;20512;-68
2022/10/28 12:39:14;;;;;;;;;;;;;;;29.33;26.92;96154.19;5070964;28;20013;-68
2022/10/28 12:41:46;;;;;;;;;;;;;;;28.98;26.96;96150.47;5072533;28;20437;-68
2022/10/28 12:44:17;;;;;;;;;;;;;;;29.12;27.32;96152.34;5073405;28;20017;-68
2022/10/28 12:46:47;;;;;;;;;;;;;;;29.16;26.82;96153.09;5072828;28;20024;-68
2022/10/28 12:49:31;;;;;;;;;;;;;;;29.13;26.83;96153.16;5073374;28;20481;-68
2022/10/28 12:52:01;;;;;;;;;;;;;;;29.08;26.66;96148.88;5072415;28;20064;-68
2022/10/28 12:54:31;;;;;;;;;;;;;;;28.92;26.41;96157.53;5071489;28;20021;-68